sensor_id;sensor_type;location;lat;lon;timestamp;temperature;humidity
33093;DHT22;19456;46.104;12.908;2023-11-21T00:00:33;9.30;99.90
33093;DHT22;19456;46.104;12.908;2023-11-21T00:02:59;9.20;99.90
33093;DHT22;19456;46.104;12.908;2023-11-21T00:05:25;9.30;99.90
33093;DHT22;19456;46.104;12.908;2023-11-21T00:07:51;9.20;99.90
33093;DHT22;19456;46.104;12.908;2023-11-21T00:10:17;9.30;99.90
33093;DHT22;19456;46.104;12.908;2023-11-21T00:12:42;9.30;99.90
33093;DHT22;19456;46.104;12.908;2023-11-21T00:15:08;9.40;99.90
33093;DHT22;19456;46.104;12.908;2023-11-21T00:17:37;9.30;99.90
33093;DHT22;19456;46.104;12.908;2023-11-21T00:20:03;9.30;99.90
33093;DHT22;19456;46.104;12.908;2023-11-21T00:22:35;9.30;99.90
33093;DHT22;19456;46.104;12.908;2023-11-21T00:25:00;9.30;99.90
33093;DHT22;19456;46.104;12.908;2023-11-21T00:27:26;9.40;99.90
33093;DHT22;19456;46.104;12.908;2023-11-21T00:29:52;9.50;99.90
33093;DHT22;19456;46.104;12.908;2023-11-21T00:32:17;9.50;99.90
33093;DHT22;19456;46.104;12.908;2023-11-21T00:34:43;9.60;99.90
33093;DHT22;19456;46.104;12.908;2023-11-21T00:37:09;9.70;99.90
33093;DHT22;19456;46.104;12.908;2023-11-21T00:39:34;9.70;99.90
33093;DHT22;19456;46.104;12.908;2023-11-21T00:42:00;9.80;99.90
33093;DHT22;19456;46.104;12.908;2023-11-21T00:44:26;9.70;99.90
33093;DHT22;19456;46.104;12.908;2023-11-21T00:46:51;9.70;99.90
33093;DHT22;19456;46.104;12.908;2023-11-21T00:49:17;9.70;99.90
33093;DHT22;19456;46.104;12.908;2023-11-21T00:51:42;9.70;99.90
33093;DHT22;19456;46.104;12.908;2023-11-21T00:54:08;9.70;99.90
33093;DHT22;19456;46.104;12.908;2023-11-21T00:56:34;9.60;99.90
33093;DHT22;19456;46.104;12.908;2023-11-21T00:58:59;9.60;99.90
33093;DHT22;19456;46.104;12.908;2023-11-21T01:01:25;9.50;99.90
33093;DHT22;19456;46.104;12.908;2023-11-21T01:03:50;9.60;99.90
33093;DHT22;19456;46.104;12.908;2023-11-21T01:06:16;9.60;99.90
33093;DHT22;19456;46.104;12.908;2023-11-21T01:08:42;9.60;99.90
33093;DHT22;19456;46.104;12.908;2023-11-21T01:11:08;9.70;99.90
33093;DHT22;19456;46.104;12.908;2023-11-21T01:13:35;9.70;99.90
33093;DHT22;19456;46.104;12.908;2023-11-21T01:16:01;9.80;99.90
33093;DHT22;19456;46.104;12.908;2023-11-21T01:18:26;9.80;99.90
33093;DHT22;19456;46.104;12.908;2023-11-21T01:20:52;9.80;99.90
33093;DHT22;19456;46.104;12.908;2023-11-21T01:23:20;9.80;99.90
33093;DHT22;19456;46.104;12.908;2023-11-21T01:25:46;9.90;99.90
33093;DHT22;19456;46.104;12.908;2023-11-21T01:28:12;10.00;99.90
33093;DHT22;19456;46.104;12.908;2023-11-21T01:30:37;10.10;99.90
33093;DHT22;19456;46.104;12.908;2023-11-21T01:33:03;10.00;99.90
33093;DHT22;19456;46.104;12.908;2023-11-21T01:35:29;9.90;99.90
33093;DHT22;19456;46.104;12.908;2023-11-21T01:37:54;9.90;99.90
33093;DHT22;19456;46.104;12.908;2023-11-21T01:40:20;10.00;99.90
33093;DHT22;19456;46.104;12.908;2023-11-21T01:42:46;10.00;99.90
33093;DHT22;19456;46.104;12.908;2023-11-21T01:45:13;9.90;99.90
33093;DHT22;19456;46.104;12.908;2023-11-21T01:47:39;10.00;99.90
33093;DHT22;19456;46.104;12.908;2023-11-21T01:50:07;10.10;99.90
33093;DHT22;19456;46.104;12.908;2023-11-21T01:52:34;10.00;99.90
33093;DHT22;19456;46.104;12.908;2023-11-21T01:55:00;10.10;99.90
33093;DHT22;19456;46.104;12.908;2023-11-21T01:57:26;10.10;99.90
33093;DHT22;19456;46.104;12.908;2023-11-21T01:59:52;10.10;99.90
33093;DHT22;19456;46.104;12.908;2023-11-21T02:02:19;10.20;99.90
33093;DHT22;19456;46.104;12.908;2023-11-21T02:04:45;10.10;99.90
33093;DHT22;19456;46.104;12.908;2023-11-21T02:07:10;10.00;99.90
33093;DHT22;19456;46.104;12.908;2023-11-21T02:09:36;9.80;99.90
33093;DHT22;19456;46.104;12.908;2023-11-21T02:12:07;9.70;99.90
33093;DHT22;19456;46.104;12.908;2023-11-21T02:14:35;9.70;99.90
33093;DHT22;19456;46.104;12.908;2023-11-21T02:17:02;9.70;99.90
33093;DHT22;19456;46.104;12.908;2023-11-21T02:19:28;9.80;99.90
33093;DHT22;19456;46.104;12.908;2023-11-21T02:21:59;9.70;99.90
33093;DHT22;19456;46.104;12.908;2023-11-21T02:24:26;9.60;99.90
33093;DHT22;19456;46.104;12.908;2023-11-21T02:26:52;9.50;99.90
33093;DHT22;19456;46.104;12.908;2023-11-21T02:29:18;9.40;99.90
33093;DHT22;19456;46.104;12.908;2023-11-21T02:31:47;9.30;99.90
33093;DHT22;19456;46.104;12.908;2023-11-21T02:34:17;9.30;99.90
33093;DHT22;19456;46.104;12.908;2023-11-21T02:36:43;9.30;99.90
33093;DHT22;19456;46.104;12.908;2023-11-21T02:39:09;9.30;99.90
33093;DHT22;19456;46.104;12.908;2023-11-21T02:41:38;9.20;99.90
33093;DHT22;19456;46.104;12.908;2023-11-21T02:44:07;9.30;99.90
33093;DHT22;19456;46.104;12.908;2023-11-21T02:46:33;9.30;99.90
33093;DHT22;19456;46.104;12.908;2023-11-21T02:49:02;9.30;99.90
33093;DHT22;19456;46.104;12.908;2023-11-21T02:51:28;9.40;99.90
33093;DHT22;19456;46.104;12.908;2023-11-21T02:53:54;9.50;99.90
33093;DHT22;19456;46.104;12.908;2023-11-21T02:56:24;9.50;99.90
33093;DHT22;19456;46.104;12.908;2023-11-21T02:58:49;9.60;99.90
33093;DHT22;19456;46.104;12.908;2023-11-21T03:01:15;9.70;99.90
33093;DHT22;19456;46.104;12.908;2023-11-21T03:03:42;9.90;99.90
33093;DHT22;19456;46.104;12.908;2023-11-21T03:06:08;10.00;99.90
33093;DHT22;19456;46.104;12.908;2023-11-21T03:08:34;10.10;99.90
33093;DHT22;19456;46.104;12.908;2023-11-21T03:11:00;10.20;99.90
33093;DHT22;19456;46.104;12.908;2023-11-21T03:13:25;10.10;99.90
33093;DHT22;19456;46.104;12.908;2023-11-21T03:15:51;10.20;99.90
33093;DHT22;19456;46.104;12.908;2023-11-21T03:18:17;10.20;99.90
33093;DHT22;19456;46.104;12.908;2023-11-21T03:20:45;10.20;99.90
33093;DHT22;19456;46.104;12.908;2023-11-21T03:23:14;10.10;99.90
33093;DHT22;19456;46.104;12.908;2023-11-21T03:25:40;10.10;99.90
33093;DHT22;19456;46.104;12.908;2023-11-21T03:28:06;10.10;99.90
33093;DHT22;19456;46.104;12.908;2023-11-21T03:30:33;10.20;99.90
33093;DHT22;19456;46.104;12.908;2023-11-21T03:32:59;10.10;99.90
33093;DHT22;19456;46.104;12.908;2023-11-21T03:35:24;10.20;99.90
33093;DHT22;19456;46.104;12.908;2023-11-21T03:37:51;10.20;99.90
33093;DHT22;19456;46.104;12.908;2023-11-21T03:40:17;10.20;99.90
33093;DHT22;19456;46.104;12.908;2023-11-21T03:42:42;10.20;99.90
33093;DHT22;19456;46.104;12.908;2023-11-21T03:45:08;10.20;99.90
33093;DHT22;19456;46.104;12.908;2023-11-21T03:47:34;10.20;99.90
33093;DHT22;19456;46.104;12.908;2023-11-21T03:49:59;10.20;99.90
33093;DHT22;19456;46.104;12.908;2023-11-21T03:52:26;10.20;99.90
33093;DHT22;19456;46.104;12.908;2023-11-21T03:54:52;10.20;99.90
33093;DHT22;19456;46.104;12.908;2023-11-21T03:57:18;10.30;99.90
33093;DHT22;19456;46.104;12.908;2023-11-21T03:59:43;10.20;99.90
33093;DHT22;19456;46.104;12.908;2023-11-21T04:02:09;9.90;99.90
33093;DHT22;19456;46.104;12.908;2023-11-21T04:04:35;9.90;99.90
33093;DHT22;19456;46.104;12.908;2023-11-21T04:07:01;9.90;99.90
33093;DHT22;19456;46.104;12.908;2023-11-21T04:09:26;9.90;99.90
33093;DHT22;19456;46.104;12.908;2023-11-21T04:11:52;9.80;99.90
33093;DHT22;19456;46.104;12.908;2023-11-21T04:14:18;9.70;99.90
33093;DHT22;19456;46.104;12.908;2023-11-21T04:16:44;9.70;99.90
33093;DHT22;19456;46.104;12.908;2023-11-21T04:19:10;9.70;99.90
33093;DHT22;19456;46.104;12.908;2023-11-21T04:21:36;9.70;99.90
33093;DHT22;19456;46.104;12.908;2023-11-21T04:24:02;9.70;99.90
33093;DHT22;19456;46.104;12.908;2023-11-21T04:26:27;9.60;99.90
33093;DHT22;19456;46.104;12.908;2023-11-21T04:28:53;9.50;99.90
33093;DHT22;19456;46.104;12.908;2023-11-21T04:31:18;9.40;99.90
33093;DHT22;19456;46.104;12.908;2023-11-21T04:33:44;9.40;99.90
33093;DHT22;19456;46.104;12.908;2023-11-21T04:36:10;9.40;99.90
33093;DHT22;19456;46.104;12.908;2023-11-21T04:38:36;9.40;99.90
33093;DHT22;19456;46.104;12.908;2023-11-21T04:41:01;9.50;99.90
33093;DHT22;19456;46.104;12.908;2023-11-21T04:43:27;9.50;99.90
33093;DHT22;19456;46.104;12.908;2023-11-21T04:45:54;9.50;99.90
33093;DHT22;19456;46.104;12.908;2023-11-21T04:48:20;9.40;99.90
33093;DHT22;19456;46.104;12.908;2023-11-21T04:50:45;9.30;99.90
33093;DHT22;19456;46.104;12.908;2023-11-21T04:53:11;9.20;99.90
33093;DHT22;19456;46.104;12.908;2023-11-21T04:55:43;9.20;99.90
33093;DHT22;19456;46.104;12.908;2023-11-21T04:58:09;9.30;99.90
33093;DHT22;19456;46.104;12.908;2023-11-21T05:00:35;9.30;99.90
33093;DHT22;19456;46.104;12.908;2023-11-21T05:03:02;9.30;99.90
33093;DHT22;19456;46.104;12.908;2023-11-21T05:05:27;9.30;99.90
33093;DHT22;19456;46.104;12.908;2023-11-21T05:07:55;9.40;99.90
33093;DHT22;19456;46.104;12.908;2023-11-21T05:10:20;9.40;99.90
33093;DHT22;19456;46.104;12.908;2023-11-21T05:12:47;9.50;99.90
33093;DHT22;19456;46.104;12.908;2023-11-21T05:15:15;9.60;99.90
33093;DHT22;19456;46.104;12.908;2023-11-21T05:17:41;9.70;99.90
33093;DHT22;19456;46.104;12.908;2023-11-21T05:20:08;9.80;99.90
33093;DHT22;19456;46.104;12.908;2023-11-21T05:22:35;9.80;99.90
33093;DHT22;19456;46.104;12.908;2023-11-21T05:25:01;9.90;99.90
33093;DHT22;19456;46.104;12.908;2023-11-21T05:27:31;9.90;99.90
33093;DHT22;19456;46.104;12.908;2023-11-21T05:29:57;10.00;99.90
33093;DHT22;19456;46.104;12.908;2023-11-21T05:32:25;10.10;99.90
33093;DHT22;19456;46.104;12.908;2023-11-21T05:34:52;10.10;99.90
33093;DHT22;19456;46.104;12.908;2023-11-21T05:37:18;10.10;99.90
33093;DHT22;19456;46.104;12.908;2023-11-21T05:39:43;10.10;99.90
33093;DHT22;19456;46.104;12.908;2023-11-21T05:42:09;10.00;99.90
33093;DHT22;19456;46.104;12.908;2023-11-21T05:44:36;10.00;99.90
33093;DHT22;19456;46.104;12.908;2023-11-21T05:47:02;10.00;99.90
33093;DHT22;19456;46.104;12.908;2023-11-21T05:49:28;10.00;99.90
33093;DHT22;19456;46.104;12.908;2023-11-21T05:51:55;10.00;99.90
33093;DHT22;19456;46.104;12.908;2023-11-21T05:54:21;10.00;99.90
33093;DHT22;19456;46.104;12.908;2023-11-21T05:56:46;10.10;99.90
33093;DHT22;19456;46.104;12.908;2023-11-21T05:59:12;10.10;99.90
33093;DHT22;19456;46.104;12.908;2023-11-21T06:01:38;10.00;99.90
33093;DHT22;19456;46.104;12.908;2023-11-21T06:04:06;10.00;99.90
33093;DHT22;19456;46.104;12.908;2023-11-21T06:06:35;10.00;99.90
33093;DHT22;19456;46.104;12.908;2023-11-21T06:09:00;10.00;99.90
33093;DHT22;19456;46.104;12.908;2023-11-21T06:11:26;9.80;99.90
33093;DHT22;19456;46.104;12.908;2023-11-21T06:13:51;9.70;99.90
33093;DHT22;19456;46.104;12.908;2023-11-21T06:16:18;9.80;99.90
33093;DHT22;19456;46.104;12.908;2023-11-21T06:18:45;9.80;99.90
33093;DHT22;19456;46.104;12.908;2023-11-21T06:21:11;10.00;99.90
33093;DHT22;19456;46.104;12.908;2023-11-21T06:23:38;10.10;99.90
33093;DHT22;19456;46.104;12.908;2023-11-21T06:26:04;10.20;99.90
33093;DHT22;19456;46.104;12.908;2023-11-21T06:28:31;10.30;99.90
33093;DHT22;19456;46.104;12.908;2023-11-21T06:30:56;10.60;99.90
33093;DHT22;19456;46.104;12.908;2023-11-21T06:33:23;10.60;99.90
33093;DHT22;19456;46.104;12.908;2023-11-21T06:35:49;10.70;99.90
33093;DHT22;19456;46.104;12.908;2023-11-21T06:38:15;10.80;99.90
33093;DHT22;19456;46.104;12.908;2023-11-21T06:40:41;10.90;99.90
33093;DHT22;19456;46.104;12.908;2023-11-21T06:43:07;11.00;99.90
33093;DHT22;19456;46.104;12.908;2023-11-21T06:45:33;11.00;99.90
33093;DHT22;19456;46.104;12.908;2023-11-21T06:48:02;11.10;99.90
33093;DHT22;19456;46.104;12.908;2023-11-21T06:50:30;11.20;99.90
33093;DHT22;19456;46.104;12.908;2023-11-21T06:52:59;11.30;99.90
33093;DHT22;19456;46.104;12.908;2023-11-21T06:55:31;11.30;99.90
33093;DHT22;19456;46.104;12.908;2023-11-21T06:58:02;11.40;99.90
33093;DHT22;19456;46.104;12.908;2023-11-21T07:00:35;11.50;99.90
33093;DHT22;19456;46.104;12.908;2023-11-21T07:03:13;11.50;99.90
33093;DHT22;19456;46.104;12.908;2023-11-21T07:12:17;11.70;99.90
33093;DHT22;19456;46.104;12.908;2023-11-21T07:15:01;11.80;99.90
33093;DHT22;19456;46.104;12.908;2023-11-21T07:17:29;11.80;99.90
33093;DHT22;19456;46.104;12.908;2023-11-21T07:20:00;11.90;99.90
33093;DHT22;19456;46.104;12.908;2023-11-21T07:22:30;11.90;99.90
33093;DHT22;19456;46.104;12.908;2023-11-21T07:25:01;11.90;99.90
33093;DHT22;19456;46.104;12.908;2023-11-21T07:27:31;11.90;99.90
33093;DHT22;19456;46.104;12.908;2023-11-21T07:30:00;11.90;99.90
33093;DHT22;19456;46.104;12.908;2023-11-21T07:32:30;11.90;99.90
33093;DHT22;19456;46.104;12.908;2023-11-21T07:34:56;11.90;99.90
33093;DHT22;19456;46.104;12.908;2023-11-21T07:37:22;11.90;99.90
33093;DHT22;19456;46.104;12.908;2023-11-21T07:39:48;11.80;99.90
33093;DHT22;19456;46.104;12.908;2023-11-21T07:42:15;11.70;99.90
33093;DHT22;19456;46.104;12.908;2023-11-21T07:44:42;11.50;99.90
33093;DHT22;19456;46.104;12.908;2023-11-21T07:47:08;11.40;99.90
33093;DHT22;19456;46.104;12.908;2023-11-21T07:52:09;11.30;99.90
33093;DHT22;19456;46.104;12.908;2023-11-21T07:54:35;11.20;99.90
33093;DHT22;19456;46.104;12.908;2023-11-21T07:57:02;11.10;99.90
33093;DHT22;19456;46.104;12.908;2023-11-21T07:59:29;11.10;99.90
33093;DHT22;19456;46.104;12.908;2023-11-21T08:01:55;11.00;99.90
33093;DHT22;19456;46.104;12.908;2023-11-21T08:04:21;11.00;99.90
33093;DHT22;19456;46.104;12.908;2023-11-21T08:06:47;11.00;99.90
33093;DHT22;19456;46.104;12.908;2023-11-21T08:09:14;10.90;99.90
33093;DHT22;19456;46.104;12.908;2023-11-21T08:11:40;10.90;99.90
33093;DHT22;19456;46.104;12.908;2023-11-21T08:14:06;10.90;99.90
33093;DHT22;19456;46.104;12.908;2023-11-21T08:16:32;10.90;99.90
33093;DHT22;19456;46.104;12.908;2023-11-21T08:18:58;10.90;99.90
33093;DHT22;19456;46.104;12.908;2023-11-21T08:21:23;10.90;99.90
33093;DHT22;19456;46.104;12.908;2023-11-21T08:23:50;10.90;99.90
33093;DHT22;19456;46.104;12.908;2023-11-21T08:26:20;10.90;99.90
33093;DHT22;19456;46.104;12.908;2023-11-21T08:28:45;10.90;99.90
33093;DHT22;19456;46.104;12.908;2023-11-21T08:31:12;10.90;99.90
33093;DHT22;19456;46.104;12.908;2023-11-21T08:33:38;10.90;99.90
33093;DHT22;19456;46.104;12.908;2023-11-21T08:36:08;10.90;99.90
33093;DHT22;19456;46.104;12.908;2023-11-21T08:38:34;10.90;99.90
33093;DHT22;19456;46.104;12.908;2023-11-21T08:41:05;11.00;99.90
33093;DHT22;19456;46.104;12.908;2023-11-21T08:43:35;11.00;99.90
33093;DHT22;19456;46.104;12.908;2023-11-21T08:46:05;11.10;99.90
33093;DHT22;19456;46.104;12.908;2023-11-21T08:48:31;11.10;99.90
33093;DHT22;19456;46.104;12.908;2023-11-21T08:50:57;11.10;99.90
33093;DHT22;19456;46.104;12.908;2023-11-21T08:53:22;11.10;99.90
33093;DHT22;19456;46.104;12.908;2023-11-21T08:55:48;11.10;99.90
33093;DHT22;19456;46.104;12.908;2023-11-21T08:58:15;10.90;99.90
33093;DHT22;19456;46.104;12.908;2023-11-21T09:00:41;10.70;99.90
33093;DHT22;19456;46.104;12.908;2023-11-21T09:03:06;10.70;99.90
33093;DHT22;19456;46.104;12.908;2023-11-21T09:05:37;10.90;99.90
33093;DHT22;19456;46.104;12.908;2023-11-21T09:08:08;10.90;99.90
33093;DHT22;19456;46.104;12.908;2023-11-21T09:10:34;10.90;99.90
33093;DHT22;19456;46.104;12.908;2023-11-21T09:13:02;10.90;99.90
33093;DHT22;19456;46.104;12.908;2023-11-21T09:15:28;10.90;99.90
33093;DHT22;19456;46.104;12.908;2023-11-21T09:17:55;11.00;99.90
33093;DHT22;19456;46.104;12.908;2023-11-21T09:20:21;11.10;99.90
33093;DHT22;19456;46.104;12.908;2023-11-21T09:22:48;11.10;99.90
33093;DHT22;19456;46.104;12.908;2023-11-21T09:25:14;11.10;99.90
33093;DHT22;19456;46.104;12.908;2023-11-21T09:27:40;11.20;99.90
33093;DHT22;19456;46.104;12.908;2023-11-21T09:30:06;11.20;99.90
33093;DHT22;19456;46.104;12.908;2023-11-21T09:32:35;11.30;99.90
33093;DHT22;19456;46.104;12.908;2023-11-21T09:35:03;11.30;99.90
33093;DHT22;19456;46.104;12.908;2023-11-21T09:37:28;11.30;99.90
33093;DHT22;19456;46.104;12.908;2023-11-21T09:39:54;11.30;99.90
33093;DHT22;19456;46.104;12.908;2023-11-21T09:42:23;11.30;99.90
33093;DHT22;19456;46.104;12.908;2023-11-21T09:47:36;11.30;99.90
33093;DHT22;19456;46.104;12.908;2023-11-21T09:50:04;11.40;99.90
33093;DHT22;19456;46.104;12.908;2023-11-21T09:52:30;11.40;99.90
33093;DHT22;19456;46.104;12.908;2023-11-21T09:54:57;11.50;99.90
33093;DHT22;19456;46.104;12.908;2023-11-21T09:57:24;11.60;99.90
33093;DHT22;19456;46.104;12.908;2023-11-21T09:59:51;11.70;99.90
33093;DHT22;19456;46.104;12.908;2023-11-21T10:02:22;11.80;99.90
33093;DHT22;19456;46.104;12.908;2023-11-21T10:04:53;11.90;99.90
33093;DHT22;19456;46.104;12.908;2023-11-21T10:07:20;11.90;99.90
33093;DHT22;19456;46.104;12.908;2023-11-21T10:09:47;11.80;99.90
33093;DHT22;19456;46.104;12.908;2023-11-21T10:12:17;11.80;99.90
33093;DHT22;19456;46.104;12.908;2023-11-21T10:14:46;11.70;99.90
33093;DHT22;19456;46.104;12.908;2023-11-21T10:17:14;11.70;99.90
33093;DHT22;19456;46.104;12.908;2023-11-21T10:19:41;11.70;99.90
33093;DHT22;19456;46.104;12.908;2023-11-21T10:22:08;11.80;99.90
33093;DHT22;19456;46.104;12.908;2023-11-21T10:24:35;11.90;99.90
33093;DHT22;19456;46.104;12.908;2023-11-21T10:27:03;11.90;99.90
33093;DHT22;19456;46.104;12.908;2023-11-21T10:29:30;12.00;99.90
33093;DHT22;19456;46.104;12.908;2023-11-21T10:32:04;12.00;99.90
33093;DHT22;19456;46.104;12.908;2023-11-21T10:34:31;12.10;99.90
33093;DHT22;19456;46.104;12.908;2023-11-21T10:37:07;12.10;99.90
33093;DHT22;19456;46.104;12.908;2023-11-21T10:39:36;12.20;99.90
33093;DHT22;19456;46.104;12.908;2023-11-21T10:42:02;12.30;99.90
33093;DHT22;19456;46.104;12.908;2023-11-21T10:44:28;12.30;99.90
33093;DHT22;19456;46.104;12.908;2023-11-21T10:46:55;12.50;99.90
33093;DHT22;19456;46.104;12.908;2023-11-21T10:49:22;12.50;99.90
33093;DHT22;19456;46.104;12.908;2023-11-21T10:51:50;12.70;99.90
33093;DHT22;19456;46.104;12.908;2023-11-21T10:54:19;12.80;99.90
33093;DHT22;19456;46.104;12.908;2023-11-21T10:56:47;12.80;99.90
33093;DHT22;19456;46.104;12.908;2023-11-21T10:59:16;12.90;99.90
33093;DHT22;19456;46.104;12.908;2023-11-21T11:01:47;13.00;99.90
33093;DHT22;19456;46.104;12.908;2023-11-21T11:04:15;13.00;99.90
33093;DHT22;19456;46.104;12.908;2023-11-21T11:06:42;13.00;99.90
33093;DHT22;19456;46.104;12.908;2023-11-21T11:09:10;13.10;99.90
33093;DHT22;19456;46.104;12.908;2023-11-21T11:11:39;13.00;99.90
33093;DHT22;19456;46.104;12.908;2023-11-21T11:14:08;13.10;99.90
33093;DHT22;19456;46.104;12.908;2023-11-21T11:16:35;13.10;99.90
33093;DHT22;19456;46.104;12.908;2023-11-21T11:19:01;13.10;99.90
33093;DHT22;19456;46.104;12.908;2023-11-21T11:21:43;13.20;99.90
33093;DHT22;19456;46.104;12.908;2023-11-21T11:34:29;13.90;99.90
33093;DHT22;19456;46.104;12.908;2023-11-21T11:37:06;14.00;99.90
33093;DHT22;19456;46.104;12.908;2023-11-21T11:39:36;13.90;99.90
33093;DHT22;19456;46.104;12.908;2023-11-21T11:42:02;14.00;99.90
33093;DHT22;19456;46.104;12.908;2023-11-21T11:47:14;14.20;99.90
33093;DHT22;19456;46.104;12.908;2023-11-21T11:52:32;14.70;99.90
33093;DHT22;19456;46.104;12.908;2023-11-21T11:54:58;15.00;99.90
33093;DHT22;19456;46.104;12.908;2023-11-21T11:57:24;14.90;99.90
33093;DHT22;19456;46.104;12.908;2023-11-21T12:02:46;14.60;99.90
33093;DHT22;19456;46.104;12.908;2023-11-21T12:05:16;14.50;99.90
33093;DHT22;19456;46.104;12.908;2023-11-21T12:07:47;14.40;99.90
33093;DHT22;19456;46.104;12.908;2023-11-21T12:10:13;14.30;99.90
33093;DHT22;19456;46.104;12.908;2023-11-21T12:12:43;14.20;99.90
33093;DHT22;19456;46.104;12.908;2023-11-21T12:15:10;14.20;99.90
33093;DHT22;19456;46.104;12.908;2023-11-21T12:17:37;14.10;99.90
33093;DHT22;19456;46.104;12.908;2023-11-21T12:20:04;14.10;99.90
33093;DHT22;19456;46.104;12.908;2023-11-21T12:22:31;14.00;99.90
33093;DHT22;19456;46.104;12.908;2023-11-21T12:24:57;14.00;99.90
33093;DHT22;19456;46.104;12.908;2023-11-21T12:27:22;14.00;99.90
33093;DHT22;19456;46.104;12.908;2023-11-21T12:29:48;13.90;99.90
33093;DHT22;19456;46.104;12.908;2023-11-21T12:32:14;13.90;99.90
33093;DHT22;19456;46.104;12.908;2023-11-21T12:34:43;13.80;99.90
33093;DHT22;19456;46.104;12.908;2023-11-21T12:37:09;13.70;99.90
33093;DHT22;19456;46.104;12.908;2023-11-21T12:39:35;13.70;99.90
33093;DHT22;19456;46.104;12.908;2023-11-21T12:42:02;13.60;99.90
33093;DHT22;19456;46.104;12.908;2023-11-21T12:44:28;13.60;99.90
33093;DHT22;19456;46.104;12.908;2023-11-21T12:46:54;13.60;99.90
33093;DHT22;19456;46.104;12.908;2023-11-21T12:49:21;13.60;99.90
33093;DHT22;19456;46.104;12.908;2023-11-21T12:51:47;13.50;99.90
33093;DHT22;19456;46.104;12.908;2023-11-21T12:54:13;13.50;99.90
33093;DHT22;19456;46.104;12.908;2023-11-21T12:56:39;13.50;99.90
33093;DHT22;19456;46.104;12.908;2023-11-21T12:59:04;13.50;99.90
33093;DHT22;19456;46.104;12.908;2023-11-21T13:01:30;13.50;99.90
33093;DHT22;19456;46.104;12.908;2023-11-21T13:03:57;13.40;99.90
33093;DHT22;19456;46.104;12.908;2023-11-21T13:06:28;13.40;99.90
33093;DHT22;19456;46.104;12.908;2023-11-21T13:08:58;13.40;99.90
33093;DHT22;19456;46.104;12.908;2023-11-21T13:11:24;13.40;99.90
33093;DHT22;19456;46.104;12.908;2023-11-21T13:13:53;13.40;99.90
33093;DHT22;19456;46.104;12.908;2023-11-21T13:16:19;13.40;99.90
33093;DHT22;19456;46.104;12.908;2023-11-21T13:18:46;13.40;99.90
33093;DHT22;19456;46.104;12.908;2023-11-21T13:21:11;13.30;99.90
33093;DHT22;19456;46.104;12.908;2023-11-21T13:23:41;13.30;99.90
33093;DHT22;19456;46.104;12.908;2023-11-21T13:26:07;13.20;99.90
33093;DHT22;19456;46.104;12.908;2023-11-21T13:28:34;13.10;99.90
33093;DHT22;19456;46.104;12.908;2023-11-21T13:31:00;13.10;99.90
33093;DHT22;19456;46.104;12.908;2023-11-21T13:33:34;13.00;99.90
33093;DHT22;19456;46.104;12.908;2023-11-21T13:36:04;13.00;99.90
33093;DHT22;19456;46.104;12.908;2023-11-21T13:38:32;13.00;99.90
33093;DHT22;19456;46.104;12.908;2023-11-21T13:40:59;13.00;99.90
33093;DHT22;19456;46.104;12.908;2023-11-21T13:43:25;12.90;99.90
33093;DHT22;19456;46.104;12.908;2023-11-21T13:45:52;12.90;99.90
33093;DHT22;19456;46.104;12.908;2023-11-21T13:48:28;12.80;99.90
33093;DHT22;19456;46.104;12.908;2023-11-21T13:51:01;12.80;99.90
33093;DHT22;19456;46.104;12.908;2023-11-21T13:53:38;12.80;99.90
33093;DHT22;19456;46.104;12.908;2023-11-21T13:56:04;12.80;99.90
33093;DHT22;19456;46.104;12.908;2023-11-21T13:58:30;12.70;99.90
33093;DHT22;19456;46.104;12.908;2023-11-21T14:01:14;12.70;99.90
33093;DHT22;19456;46.104;12.908;2023-11-21T14:03:55;12.70;99.90
33093;DHT22;19456;46.104;12.908;2023-11-21T14:06:48;12.70;99.90
33093;DHT22;19456;46.104;12.908;2023-11-21T14:09:18;12.60;99.90
33093;DHT22;19456;46.104;12.908;2023-11-21T14:12:01;12.60;99.90
33093;DHT22;19456;46.104;12.908;2023-11-21T14:14:31;12.60;99.90
33093;DHT22;19456;46.104;12.908;2023-11-21T14:16:57;12.50;99.90
33093;DHT22;19456;46.104;12.908;2023-11-21T14:19:24;12.50;99.90
33093;DHT22;19456;46.104;12.908;2023-11-21T14:21:55;12.50;99.90
33093;DHT22;19456;46.104;12.908;2023-11-21T14:24:21;12.50;99.90
33093;DHT22;19456;46.104;12.908;2023-11-21T14:26:48;12.50;99.90
33093;DHT22;19456;46.104;12.908;2023-11-21T14:29:15;12.50;99.90
33093;DHT22;19456;46.104;12.908;2023-11-21T14:31:44;12.40;99.90
33093;DHT22;19456;46.104;12.908;2023-11-21T14:34:10;12.40;99.90
33093;DHT22;19456;46.104;12.908;2023-11-21T14:36:37;12.40;99.90
33093;DHT22;19456;46.104;12.908;2023-11-21T14:39:04;12.40;99.90
33093;DHT22;19456;46.104;12.908;2023-11-21T14:41:34;12.40;99.90
33093;DHT22;19456;46.104;12.908;2023-11-21T14:44:01;12.40;99.90
33093;DHT22;19456;46.104;12.908;2023-11-21T14:46:29;12.30;99.90
33093;DHT22;19456;46.104;12.908;2023-11-21T14:48:55;12.30;99.90
33093;DHT22;19456;46.104;12.908;2023-11-21T14:51:45;12.30;99.90
33093;DHT22;19456;46.104;12.908;2023-11-21T14:54:27;12.30;99.90
33093;DHT22;19456;46.104;12.908;2023-11-21T14:57:09;12.40;99.90
33093;DHT22;19456;46.104;12.908;2023-11-21T14:59:48;12.30;99.90
33093;DHT22;19456;46.104;12.908;2023-11-21T15:02:17;12.30;99.90
33093;DHT22;19456;46.104;12.908;2023-11-21T15:04:48;12.40;99.90
33093;DHT22;19456;46.104;12.908;2023-11-21T15:07:16;12.40;99.90
33093;DHT22;19456;46.104;12.908;2023-11-21T15:09:42;12.40;99.90
33093;DHT22;19456;46.104;12.908;2023-11-21T15:12:10;12.40;99.90
33093;DHT22;19456;46.104;12.908;2023-11-21T15:17:08;12.30;99.90
33093;DHT22;19456;46.104;12.908;2023-11-21T15:19:34;12.30;99.90
33093;DHT22;19456;46.104;12.908;2023-11-21T15:22:01;12.30;99.90
33093;DHT22;19456;46.104;12.908;2023-11-21T15:24:26;12.30;99.90
33093;DHT22;19456;46.104;12.908;2023-11-21T15:26:52;12.20;99.90
33093;DHT22;19456;46.104;12.908;2023-11-21T15:29:19;12.00;99.90
33093;DHT22;19456;46.104;12.908;2023-11-21T15:31:46;12.00;99.90
33093;DHT22;19456;46.104;12.908;2023-11-21T15:34:16;11.70;99.90
33093;DHT22;19456;46.104;12.908;2023-11-21T15:36:42;11.70;99.90
33093;DHT22;19456;46.104;12.908;2023-11-21T15:39:08;11.60;99.90
33093;DHT22;19456;46.104;12.908;2023-11-21T15:41:39;11.50;99.90
33093;DHT22;19456;46.104;12.908;2023-11-21T15:44:06;11.50;99.90
33093;DHT22;19456;46.104;12.908;2023-11-21T15:46:36;11.40;99.90
33093;DHT22;19456;46.104;12.908;2023-11-21T15:49:04;11.50;99.90
33093;DHT22;19456;46.104;12.908;2023-11-21T15:51:42;11.40;99.90
33093;DHT22;19456;46.104;12.908;2023-11-21T15:54:10;11.50;99.90